Time;durP1;ratioP1;P1;durP2;ratioP2;P2;SDS_P1;SDS_P2;PMS_P1;PMS_P2;Temp;Humidity;BMP_temperature;BMP_pressure;BME280_temperature;BME280_humidity;BME280_pressure;Samples;Min_cycle;Max_cycle;Signal;HPM_P1;HPM_P2
2022/08/10 00:02:24;;;;;;;5.40;1.50;;;16.40;99.90;;;;;;5009187;28;20819;-49
2022/08/10 00:04:50;;;;;;;3.73;2.80;;;16.30;99.90;;;;;;5010570;28;20487;-49
2022/08/10 00:07:18;;;;;;;3.80;2.13;;;16.20;99.90;;;;;;5012622;28;20494;-50
2022/08/10 00:09:45;;;;;;;4.07;2.30;;;16.20;99.90;;;;;;5012364;28;20510;-50
2022/08/10 00:12:11;;;;;;;3.20;2.40;;;16.10;99.90;;;;;;5011268;28;20530;-49
2022/08/10 00:14:38;;;;;;;3.53;1.90;;;16.00;99.90;;;;;;5012493;28;20463;-50
2022/08/10 00:17:05;;;;;;;4.47;1.93;;;16.00;99.90;;;;;;5011331;28;20542;-50
2022/08/10 00:19:31;;;;;;;4.40;2.20;;;15.90;99.90;;;;;;5010201;28;20884;-49
2022/08/10 00:21:58;;;;;;;2.07;1.93;;;15.90;99.90;;;;;;5008189;28;20601;-49
2022/08/10 00:24:26;;;;;;;5.40;1.50;;;15.80;99.90;;;;;;5013801;28;20566;-50
2022/08/10 00:26:52;;;;;;;2.50;1.73;;;15.80;99.90;;;;;;5011499;28;20550;-50
2022/08/10 00:29:19;;;;;;;2.00;1.90;;;15.70;99.90;;;;;;5012979;28;20882;-49
2022/08/10 00:31:45;;;;;;;2.13;1.70;;;15.70;99.90;;;;;;5010525;28;20511;-49
2022/08/10 00:34:12;;;;;;;3.90;1.80;;;15.70;99.90;;;;;;5013221;28;20509;-49
2022/08/10 00:36:39;;;;;;;2.50;2.07;;;15.60;99.90;;;;;;5009834;28;20490;-49
2022/08/10 00:39:05;;;;;;;1.87;1.70;;;15.60;99.90;;;;;;5009207;28;21031;-50
2022/08/10 00:41:33;;;;;;;4.37;2.00;;;15.50;99.90;;;;;;5010488;28;20523;-49
2022/08/10 00:44:00;;;;;;;1.57;1.47;;;15.50;99.90;;;;;;5010566;28;20506;-49
2022/08/10 00:46:26;;;;;;;1.80;1.70;;;15.50;99.90;;;;;;5010379;28;20493;-49
2022/08/10 00:48:53;;;;;;;2.63;1.80;;;15.40;99.90;;;;;;5010279;28;20503;-49
2022/08/10 00:51:20;;;;;;;2.00;1.87;;;15.40;99.90;;;;;;5009169;28;20495;-49
2022/08/10 00:53:47;;;;;;;2.80;1.53;;;15.30;99.90;;;;;;5008365;28;20483;-49
2022/08/10 00:56:13;;;;;;;2.93;2.10;;;15.40;99.90;;;;;;5012767;28;20444;-49
2022/08/10 00:58:41;;;;;;;3.40;1.90;;;15.40;99.90;;;;;;5010220;28;20491;-49
2022/08/10 01:01:08;;;;;;;3.53;1.90;;;15.30;99.90;;;;;;5010142;28;20573;-50
2022/08/10 01:03:35;;;;;;;2.83;2.33;;;15.20;99.90;;;;;;5010433;28;20530;-50
2022/08/10 01:06:09;;;;;;;2.80;1.87;;;15.10;99.90;;;;;;5012142;28;20487;-50
2022/08/10 01:08:44;;;;;;;2.97;2.43;;;15.00;99.90;;;;;;5010289;28;20498;-49
2022/08/10 01:11:18;;;;;;;3.60;2.30;;;15.00;99.90;;;;;;5006801;28;20478;-50
2022/08/10 01:13:53;;;;;;;2.10;1.60;;;14.90;99.90;;;;;;5010899;28;20557;-49
2022/08/10 01:16:26;;;;;;;2.27;2.17;;;14.90;99.90;;;;;;5010900;28;20976;-50
2022/08/10 01:18:59;;;;;;;3.37;2.30;;;14.80;99.90;;;;;;5006251;28;20463;-50
2022/08/10 01:22:06;;;;;;;2.73;2.30;;;14.70;99.90;;;;;;5009443;28;20594;-49
2022/08/10 01:24:51;;;;;;;2.90;1.80;;;14.70;99.90;;;;;;5009920;28;20522;-50
2022/08/10 01:27:26;;;;;;;7.97;2.50;;;14.70;99.90;;;;;;5006414;28;20460;-50
2022/08/10 01:30:01;;;;;;;3.20;2.33;;;14.70;99.90;;;;;;5011340;28;20945;-49
2022/08/10 01:32:37;;;;;;;2.43;2.27;;;14.70;99.90;;;;;;5012132;28;20800;-49
2022/08/10 01:35:11;;;;;;;2.00;1.87;;;14.70;99.90;;;;;;5010905;28;20561;-49
2022/08/10 01:37:43;;;;;;;2.97;2.37;;;14.70;99.90;;;;;;5011530;28;20513;-49
2022/08/10 01:40:12;;;;;;;3.70;2.73;;;14.50;99.90;;;;;;5010227;28;20495;-49
2022/08/10 01:42:42;;;;;;;4.07;2.47;;;14.50;99.90;;;;;;5009805;28;20483;-49
2022/08/10 01:45:14;;;;;;;2.63;2.43;;;14.30;99.90;;;;;;5012237;28;20930;-49
2022/08/10 01:50:46;;;;;;;3.43;2.60;;;14.40;99.90;;;;;;4992991;28;20473;-49
2022/08/10 01:53:18;;;;;;;4.60;2.57;;;14.40;99.90;;;;;;4984220;28;20496;-48
2022/08/10 01:55:46;;;;;;;2.17;2.07;;;14.40;99.90;;;;;;4997977;28;20513;-49
2022/08/10 01:58:17;;;;;;;2.00;1.90;;;14.20;99.90;;;;;;5010873;28;21019;-49
2022/08/10 02:00:48;;;;;;;2.90;2.60;;;14.10;99.90;;;;;;5009785;28;20483;-49
2022/08/10 02:03:17;;;;;;;3.07;2.87;;;14.00;99.90;;;;;;5011292;28;20440;-49
2022/08/10 02:05:48;;;;;;;2.27;2.17;;;13.80;99.90;;;;;;5010272;28;20468;-50
2022/08/10 02:08:17;;;;;;;2.43;2.20;;;13.80;99.90;;;;;;5004058;28;21006;-49
2022/08/10 02:10:46;;;;;;;3.70;2.77;;;13.90;98.10;;;;;;5008207;28;20511;-49
2022/08/10 02:13:17;;;;;;;3.03;2.77;;;13.90;99.90;;;;;;5007244;28;20925;-49
2022/08/10 02:15:46;;;;;;;2.30;2.10;;;13.80;92.60;;;;;;5010725;28;20996;-49
2022/08/10 02:18:13;;;;;;;4.73;1.97;;;13.80;89.30;;;;;;5012179;28;20444;-49
2022/08/10 02:20:43;;;;;;;3.17;2.10;;;13.80;89.50;;;;;;5010330;28;20480;-50
2022/08/10 02:23:15;;;;;;;2.53;2.30;;;13.80;86.20;;;;;;5008791;28;20480;-49
2022/08/10 02:25:42;;;;;;;11.30;3.20;;;13.80;88.70;;;;;;5011102;28;20483;-49
2022/08/10 02:28:10;;;;;;;2.80;2.60;;;13.80;86.00;;;;;;5010180;28;20460;-49
2022/08/10 02:30:37;;;;;;;4.00;2.73;;;13.80;86.30;;;;;;5010771;28;20483;-49
2022/08/10 02:33:06;;;;;;;2.70;2.60;;;13.70;84.50;;;;;;5010686;28;20483;-49
2022/08/10 02:35:35;;;;;;;5.73;2.80;;;13.70;86.00;;;;;;5009666;28;20518;-49
2022/08/10 02:38:05;;;;;;;3.83;2.50;;;13.60;79.10;;;;;;5006966;28;21087;-50
2022/08/10 02:40:38;;;;;;;2.90;2.80;;;13.60;72.50;;;;;;5012046;28;20569;-49
2022/08/10 02:43:13;;;;;;;3.03;2.70;;;13.60;73.10;;;;;;5006563;28;20958;-54
2022/08/10 02:45:44;;;;;;;2.90;2.70;;;13.70;76.90;;;;;;5013805;28;20498;-54
2022/08/10 02:48:18;;;;;;;9.50;2.70;;;13.60;72.20;;;;;;5015316;28;20467;-53
2022/08/10 02:50:53;;;;;;;3.43;2.93;;;13.60;68.20;;;;;;5012940;28;20487;-53
2022/08/10 02:53:28;;;;;;;4.47;2.70;;;13.60;68.40;;;;;;5013075;28;20483;-54
2022/08/10 02:56:00;;;;;;;3.37;2.43;;;13.60;68.80;;;;;;5014486;28;20447;-54
2022/08/10 02:58:30;;;;;;;5.07;2.80;;;13.60;69.80;;;;;;5010766;28;20549;-54
2022/08/10 03:00:59;;;;;;;3.43;3.13;;;13.50;62.80;;;;;;5010890;28;20573;-54
2022/08/10 03:03:31;;;;;;;3.47;2.90;;;13.40;55.50;;;;;;5014251;28;20451;-53
2022/08/10 03:06:03;;;;;;;4.93;3.20;;;13.40;53.00;;;;;;5010523;28;20513;-54
2022/08/10 03:08:34;;;;;;;2.80;2.63;;;13.50;47.80;;;;;;5003826;28;20545;-53
2022/08/10 03:11:04;;;;;;;3.27;2.50;;;13.40;57.20;;;;;;5010723;28;20475;-54
2022/08/10 03:13:32;;;;;;;3.00;2.67;;;13.40;53.40;;;;;;5011837;28;20912;-54
2022/08/10 03:16:01;;;;;;;5.87;3.70;;;13.40;57.10;;;;;;5014033;28;20487;-53
2022/08/10 03:18:29;;;;;;;3.53;3.23;;;13.40;55.60;;;;;;5011907;28;20455;-53
2022/08/10 03:20:58;;;;;;;3.97;3.67;;;13.40;51.40;;;;;;5012268;28;21205;-53
2022/08/10 03:23:26;;;;;;;3.20;2.70;;;13.30;41.70;;;;;;5013817;28;20448;-54
2022/08/10 03:25:56;;;;;;;3.23;3.03;;;13.30;48.50;;;;;;5013483;28;20459;-53
2022/08/10 03:28:26;;;;;;;3.07;2.77;;;13.40;44.00;;;;;;5012677;28;20475;-54
2022/08/10 03:30:53;;;;;;;5.73;2.80;;;13.30;49.30;;;;;;5012985;28;21170;-54
2022/08/10 03:33:21;;;;;;;5.53;3.07;;;13.30;52.00;;;;;;5012719;28;20961;-55
2022/08/10 03:35:49;;;;;;;3.07;2.73;;;13.30;54.80;;;;;;5010346;28;20464;-54
2022/08/10 03:38:16;;;;;;;3.10;2.90;;;13.20;54.70;;;;;;5012806;28;20452;-55
2022/08/10 03:40:47;;;;;;;3.13;2.93;;;13.20;48.20;;;;;;5011536;28;20503;-53
2022/08/10 03:43:17;;;;;;;6.60;3.53;;;13.30;40.10;;;;;;5010663;28;21371;-53
2022/08/10 03:45:46;;;;;;;4.00;2.97;;;13.30;29.90;;;;;;5010929;28;20935;-54
2022/08/10 03:48:14;;;;;;;4.37;3.30;;;13.30;24.60;;;;;;5010470;28;20456;-55
2022/08/10 03:50:41;;;;;;;3.80;3.10;;;13.30;29.70;;;;;;5030149;23;20491;-49
2022/08/10 03:53:10;;;;;;;5.20;3.47;;;13.20;47.30;;;;;;5028305;28;20509;-49
2022/08/10 03:55:37;;;;;;;3.83;2.80;;;13.20;46.80;;;;;;5031761;28;20498;-50
2022/08/10 03:58:03;;;;;;;4.50;3.30;;;13.20;45.70;;;;;;5028395;28;20493;-50
2022/08/10 04:00:33;;;;;;;4.60;2.87;;;13.30;46.10;;;;;;5030355;28;21005;-51
2022/08/10 04:03:03;;;;;;;9.10;3.13;;;13.20;50.90;;;;;;5030934;28;20482;-50
2022/08/10 04:05:30;;;;;;;3.27;3.07;;;13.30;43.80;;;;;;5034502;28;20545;-50
2022/08/10 04:07:57;;;;;;;8.53;3.13;;;13.20;51.90;;;;;;5031501;28;21653;-50
2022/08/10 04:10:25;;;;;;;4.63;3.27;;;13.20;39.10;;;;;;5033422;28;20900;-50
2022/08/10 04:12:51;;;;;;;5.37;3.00;;;13.20;44.30;;;;;;5031826;28;20885;-50
2022/08/10 04:15:19;;;;;;;4.07;2.80;;;13.20;34.50;;;;;;5034996;28;20532;-50
2022/08/10 04:17:46;;;;;;;10.43;3.33;;;13.20;23.80;;;;;;5032324;28;20462;-50
2022/08/10 04:20:19;;;;;;;4.60;3.23;;;13.20;26.70;;;;;;5036503;28;20493;-50
2022/08/10 04:22:49;;;;;;;4.20;3.87;;;13.20;25.40;;;;;;5031208;28;20490;-50
2022/08/10 04:25:16;;;;;;;3.70;3.40;;;13.30;25.00;;;;;;5028916;28;20544;-50
2022/08/10 04:27:46;;;;;;;6.37;3.30;;;13.30;74.00;;;;;;5033438;28;20493;-50
2022/08/10 04:30:12;;;;;;;4.40;3.40;;;13.30;97.50;;;;;;5038227;28;20458;-50
2022/08/10 04:32:40;;;;;;;3.40;3.10;;;13.30;80.90;;;;;;5032373;28;20459;-51
2022/08/10 04:35:09;;;;;;;8.83;4.00;;;13.30;20.80;;;;;;5037676;28;20486;-52
2022/08/10 04:37:37;;;;;;;5.07;3.47;;;13.40;22.00;;;;;;5040054;28;20462;-52
2022/08/10 04:40:05;;;;;;;3.80;3.17;;;13.40;25.80;;;;;;5031519;28;20494;-52
2022/08/10 04:42:31;;;;;;;7.93;4.30;;;13.50;27.50;;;;;;5036038;28;20540;-52
2022/08/10 04:44:59;;;;;;;5.23;3.37;;;13.50;22.00;;;;;;5036181;28;20482;-52
2022/08/10 04:47:26;;;;;;;4.87;3.53;;;13.60;83.60;;;;;;5028009;28;20883;-51
2022/08/10 04:49:53;;;;;;;4.30;3.80;;;13.60;86.70;;;;;;5032409;28;20494;-51
2022/08/10 04:52:19;;;;;;;4.93;3.73;;;13.80;99.90;;;;;;5030500;28;20918;-51
2022/08/10 04:54:46;;;;;;;4.13;3.83;;;13.80;99.90;;;;;;5037641;28;21041;-50
2022/08/10 04:57:12;;;;;;;4.67;4.27;;;13.90;99.90;;;;;;5037204;28;20487;-51
2022/08/10 04:59:39;;;;;;;7.73;3.43;;;14.00;99.90;;;;;;5031999;28;20470;-51
2022/08/10 05:02:07;;;;;;;6.00;4.07;;;14.10;99.90;;;;;;5037016;28;20517;-51
2022/08/10 05:04:33;;;;;;;6.00;4.00;;;14.10;99.90;;;;;;5034444;28;20604;-51
2022/08/10 05:07:00;;;;;;;4.43;3.60;;;14.20;99.90;;;;;;5032173;28;20458;-51
2022/08/10 05:09:26;;;;;;;7.03;4.00;;;14.30;99.90;;;;;;5031882;28;20877;-51
2022/08/10 05:11:53;;;;;;;4.50;3.83;;;14.40;99.90;;;;;;5031340;28;20510;-52
2022/08/10 05:14:20;;;;;;;4.20;3.80;;;14.50;99.90;;;;;;5031992;28;20849;-51
2022/08/10 05:16:46;;;;;;;5.60;3.90;;;14.60;99.90;;;;;;5036470;28;20471;-52
2022/08/10 05:19:14;;;;;;;4.50;4.10;;;14.70;99.90;;;;;;5032635;28;20470;-51
2022/08/10 05:21:41;;;;;;;9.00;4.70;;;14.80;99.90;;;;;;5036483;28;20525;-52
2022/08/10 05:24:08;;;;;;;4.13;3.80;;;14.80;99.90;;;;;;5027581;28;20502;-51
2022/08/10 05:26:34;;;;;;;5.20;4.10;;;14.90;99.90;;;;;;5029608;28;20534;-51
2022/08/10 05:29:01;;;;;;;4.03;3.63;;;15.00;99.90;;;;;;5035488;28;20497;-51
2022/08/10 05:31:27;;;;;;;6.47;4.37;;;15.20;99.90;;;;;;5031829;28;20477;-51
2022/08/10 05:33:54;;;;;;;10.03;4.40;;;15.20;99.90;;;;;;5031879;28;20443;-52
2022/08/10 05:36:22;;;;;;;4.70;3.70;;;15.30;99.90;;;;;;5031668;28;20912;-51
2022/08/10 05:38:49;;;;;;;4.00;3.60;;;15.40;99.90;;;;;;5028674;28;20551;-51
2022/08/10 05:41:17;;;;;;;7.27;4.33;;;15.50;99.90;;;;;;5035270;28;20572;-52
2022/08/10 05:43:44;;;;;;;4.63;3.00;;;15.60;99.90;;;;;;5030645;28;20544;-51
2022/08/10 05:46:10;;;;;;;4.33;3.60;;;15.60;99.90;;;;;;5033813;28;20521;-51
2022/08/10 05:48:39;;;;;;;4.50;4.10;;;15.70;99.90;;;;;;5043875;28;20466;-51
2022/08/10 05:51:06;;;;;;;17.70;3.97;;;15.80;99.90;;;;;;5029026;28;20526;-50
2022/08/10 05:53:35;;;;;;;7.30;3.60;;;15.80;25.00;;;;;;5040617;28;20483;-51
2022/08/10 05:56:03;;;;;;;8.10;3.80;;;15.90;28.20;;;;;;5023776;28;20452;-51
2022/08/10 05:58:30;;;;;;;6.30;3.53;;;16.00;31.10;;;;;;5033575;28;20494;-51
2022/08/10 06:00:59;;;;;;;4.70;3.60;;;16.10;36.60;;;;;;5026251;28;20510;-51
2022/08/10 06:03:33;;;;;;;4.77;3.90;;;16.20;43.40;;;;;;5036508;28;20518;-51
2022/08/10 06:06:02;;;;;;;8.37;3.87;;;16.30;46.90;;;;;;5030621;28;20490;-50
2022/08/10 06:08:33;;;;;;;5.87;4.10;;;16.30;49.40;;;;;;5031228;28;20513;-51
2022/08/10 06:11:04;;;;;;;5.67;3.87;;;16.50;57.60;;;;;;5031529;28;20489;-51
2022/08/10 06:16:20;;;;;;;8.67;4.43;;;16.70;73.90;;;;;;5030872;28;20839;-50
2022/08/10 06:18:47;;;;;;;7.03;3.33;;;16.80;80.40;;;;;;5038241;28;20511;-50
2022/08/10 06:21:15;;;;;;;3.57;3.27;;;16.80;88.10;;;;;;5035683;28;20518;-51
2022/08/10 06:23:44;;;;;;;4.63;4.23;;;17.00;96.30;;;;;;5030791;28;20517;-52
2022/08/10 06:26:12;;;;;;;5.23;4.10;;;17.00;99.90;;;;;;5027858;28;20540;-51
2022/08/10 06:28:42;;;;;;;4.70;3.67;;;17.10;99.90;;;;;;5030800;28;20680;-51
2022/08/10 06:31:10;;;;;;;3.70;3.40;;;17.20;99.90;;;;;;5030291;28;20528;-51
2022/08/10 06:33:38;;;;;;;5.43;4.27;;;17.30;99.90;;;;;;5035445;28;20490;-51
2022/08/10 06:36:07;;;;;;;3.80;3.50;;;17.40;99.90;;;;;;5030638;28;20447;-50
2022/08/10 06:38:37;;;;;;;5.03;3.63;;;17.40;99.90;;;;;;5029648;28;20529;-51
2022/08/10 06:41:10;;;;;;;5.73;3.93;;;17.50;99.90;;;;;;5027197;28;20483;-51
2022/08/10 06:43:45;;;;;;;3.57;3.27;;;17.60;99.90;;;;;;5031784;28;20541;-51
2022/08/10 06:46:16;;;;;;;7.50;3.80;;;17.70;99.90;;;;;;5030917;28;20867;-51
2022/08/10 06:48:49;;;;;;;5.93;3.77;;;17.80;99.90;;;;;;5033291;28;20491;-51
2022/08/10 06:51:21;;;;;;;5.43;3.67;;;17.90;99.90;;;;;;5033038;28;20528;-51
2022/08/10 06:53:52;;;;;;;4.20;3.70;;;18.00;99.90;;;;;;5039788;28;20963;-51
2022/08/10 06:56:20;;;;;;;4.33;3.23;;;18.10;99.90;;;;;;5031593;28;21010;-52
2022/08/10 06:58:53;;;;;;;5.53;3.17;;;18.30;99.90;;;;;;5034429;28;20493;-51
2022/08/10 07:01:22;;;;;;;10.60;4.43;;;18.40;99.90;;;;;;5030664;28;20998;-51
2022/08/10 07:03:56;;;;;;;6.73;4.23;;;18.50;99.90;;;;;;5032049;28;20529;-51
2022/08/10 07:06:23;;;;;;;7.27;3.63;;;18.60;99.90;;;;;;5027115;28;20828;-51
2022/08/10 07:08:52;;;;;;;6.77;3.60;;;18.80;99.90;;;;;;5030137;28;20493;-52
2022/08/10 07:11:20;;;;;;;4.20;3.27;;;18.90;99.90;;;;;;5030895;28;20487;-52
2022/08/10 07:13:48;;;;;;;3.90;3.60;;;19.00;99.90;;;;;;5030348;28;20486;-52
2022/08/10 07:16:17;;;;;;;4.53;4.13;;;19.00;99.90;;;;;;5028010;28;20493;-52
2022/08/10 07:18:45;;;;;;;3.47;3.23;;;19.10;99.90;;;;;;5029309;28;20855;-52
2022/08/10 07:21:13;;;;;;;3.90;3.47;;;19.40;99.90;;;;;;5032067;28;20573;-51
2022/08/10 07:23:44;;;;;;;4.53;4.13;;;19.60;99.90;;;;;;5034312;28;20474;-52
2022/08/10 07:26:12;;;;;;;5.97;3.60;;;19.80;20.10;;;;;;5024931;28;20485;-51
2022/08/10 07:28:39;;;;;;;4.83;3.90;;;19.90;30.00;;;;;;5030092;28;20458;-52
2022/08/10 07:31:08;;;;;;;4.27;3.63;;;20.00;42.60;;;;;;5030616;28;20540;-51
2022/08/10 07:33:37;;;;;;;4.53;4.13;;;20.00;43.20;;;;;;5033282;28;20564;-51
2022/08/10 07:36:05;;;;;;;4.63;3.63;;;20.10;50.40;;;;;;5030711;28;20575;-52
2022/08/10 07:38:34;;;;;;;5.57;3.23;;;20.10;59.90;;;;;;5033813;28;20494;-52
2022/08/10 07:41:03;;;;;;;5.33;3.20;;;20.20;64.60;;;;;;5030515;28;20560;-52
2022/08/10 07:43:36;;;;;;;6.70;3.37;;;20.20;69.70;;;;;;5031764;28;20896;-52
2022/08/10 07:46:05;;;;;;;6.33;3.60;;;20.30;69.80;;;;;;5025624;28;20463;-52
2022/08/10 07:48:37;;;;;;;3.33;3.10;;;20.40;76.20;;;;;;5032280;28;20494;-53
2022/08/10 07:51:05;;;;;;;3.83;3.43;;;20.50;82.00;;;;;;5026212;28;20522;-53
2022/08/10 07:53:36;;;;;;;3.83;3.53;;;20.50;87.70;;;;;;5032932;28;20494;-52
2022/08/10 07:56:04;;;;;;;5.93;3.10;;;20.60;88.10;;;;;;5026085;28;20549;-52
2022/08/10 07:58:36;;;;;;;3.33;2.73;;;20.70;94.30;;;;;;5024074;28;21023;-52
2022/08/10 08:01:03;;;;;;;14.73;3.13;;;20.80;96.70;;;;;;5029922;28;21004;-52
2022/08/10 08:03:32;;;;;;;5.67;3.40;;;20.80;99.90;;;;;;5023254;28;20570;-51
2022/08/10 08:06:02;;;;;;;4.27;2.50;;;21.00;99.90;;;;;;5030714;28;20854;-52
2022/08/10 08:08:31;;;;;;;7.53;3.20;;;21.10;99.90;;;;;;5035790;28;20470;-51
2022/08/10 08:10:59;;;;;;;3.97;2.73;;;21.20;99.90;;;;;;5031452;28;20486;-53
2022/08/10 08:13:27;;;;;;;4.87;2.90;;;21.40;99.90;;;;;;5024158;28;20454;-53
2022/08/10 08:15:56;;;;;;;2.70;2.50;;;21.50;99.90;;;;;;5027985;28;20526;-52
2022/08/10 08:18:24;;;;;;;2.50;2.27;;;21.50;99.90;;;;;;5036339;28;21132;-52
2022/08/10 08:20:51;;;;;;;2.60;2.37;;;21.60;99.90;;;;;;5029494;28;20578;-53
2022/08/10 08:23:20;;;;;;;2.10;1.97;;;21.80;99.90;;;;;;5037716;28;20478;-53
2022/08/10 08:25:47;;;;;;;3.30;2.47;;;21.90;99.90;;;;;;5026926;28;20568;-52
2022/08/10 08:28:15;;;;;;;2.20;2.10;;;22.00;99.90;;;;;;5037075;28;20556;-52
2022/08/10 08:30:42;;;;;;;6.00;2.80;;;22.10;99.90;;;;;;5022034;28;21394;-52
2022/08/10 08:33:11;;;;;;;6.03;1.87;;;22.20;99.90;;;;;;5024765;28;20550;-52
2022/08/10 08:35:38;;;;;;;2.30;2.03;;;22.30;99.90;;;;;;5027119;28;20467;-52
2022/08/10 08:38:06;;;;;;;8.40;2.33;;;22.30;99.90;;;;;;5025527;28;20490;-52
2022/08/10 08:40:36;;;;;;;2.73;2.10;;;22.40;99.90;;;;;;5028955;28;20811;-52
2022/08/10 08:43:23;;;;;;;2.97;2.13;;;22.60;99.90;;;;;;5028294;28;21051;-52
2022/08/10 08:46:27;;;;;;;3.90;2.60;;;22.70;99.90;;;;;;5031539;28;20750;-53
2022/08/10 08:49:15;;;;;;;1.80;1.70;;;22.80;99.90;;;;;;5028393;28;20459;-52
2022/08/10 08:51:53;;;;;;;2.20;2.10;;;22.90;99.90;;;;;;5023012;28;20494;-52
2022/08/10 08:54:33;;;;;;;2.20;1.87;;;23.00;99.90;;;;;;5032834;28;20536;-51
2022/08/10 08:57:05;;;;;;;1.90;1.80;;;23.10;99.90;;;;;;5028714;28;20495;-51
2022/08/10 08:59:50;;;;;;;3.40;2.30;;;23.20;99.90;;;;;;5027878;28;20466;-52
2022/08/10 09:02:33;;;;;;;2.30;2.03;;;23.30;99.90;;;;;;5034921;28;20522;-52
2022/08/10 09:05:08;;;;;;;1.90;1.80;;;23.60;99.90;;;;;;5029825;28;20473;-52
2022/08/10 09:08:08;;;;;;;2.43;2.10;;;23.90;99.90;;;;;;5030001;28;20989;-52
2022/08/10 09:10:43;;;;;;;1.77;1.27;;;24.10;99.90;;;;;;5015518;28;20972;-52
2022/08/10 09:13:19;;;;;;;1.43;1.30;;;24.40;99.90;;;;;;5026682;28;20540;-52
2022/08/10 09:15:54;;;;;;;2.17;2.00;;;24.70;99.90;;;;;;5028499;28;20455;-51
2022/08/10 09:18:27;;;;;;;2.40;1.87;;;24.80;99.90;;;;;;5029689;28;20494;-51
2022/08/10 09:21:00;;;;;;;1.80;1.70;;;24.70;99.90;;;;;;5026866;28;20506;-52
2022/08/10 09:23:35;;;;;;;5.23;2.10;;;24.50;99.90;;;;;;5026497;28;20479;-52
2022/08/10 09:26:11;;;;;;;2.70;1.80;;;24.60;99.90;;;;;;5031673;28;20456;-52
2022/08/10 09:28:42;;;;;;;3.40;1.30;;;24.70;99.90;;;;;;5030152;28;20454;-52
2022/08/10 09:31:11;;;;;;;1.87;1.40;;;24.80;99.90;;;;;;5018556;28;21424;-52
2022/08/10 09:33:46;;;;;;;3.07;1.77;;;24.90;99.90;;;;;;5030540;28;20551;-51
2022/08/10 09:36:26;;;;;;;1.10;1.00;;;24.90;99.90;;;;;;5022192;28;20604;-52
2022/08/10 09:39:02;;;;;;;2.37;1.43;;;24.80;99.90;;;;;;5028760;28;20513;-51
2022/08/10 09:41:40;;;;;;;1.10;1.00;;;24.90;99.90;;;;;;5028905;28;20483;-52
2022/08/10 09:44:21;;;;;;;0.97;0.87;;;24.80;99.90;;;;;;5023186;28;20482;-52
2022/08/10 09:47:00;;;;;;;2.40;1.13;;;25.10;99.90;;;;;;5025799;28;20994;-53
2022/08/10 09:49:38;;;;;;;1.00;1.00;;;25.30;99.90;;;;;;5026733;28;20544;-51
2022/08/10 09:52:14;;;;;;;2.63;1.43;;;25.60;99.90;;;;;;5030781;28;20485;-52
2022/08/10 09:54:52;;;;;;;1.50;1.40;;;25.70;99.90;;;;;;5033269;28;20478;-52
2022/08/10 09:57:28;;;;;;;2.80;0.97;;;25.70;99.90;;;;;;5037191;28;20482;-52
2022/08/10 10:00:01;;;;;;;5.10;1.27;;;25.70;99.90;;;;;;5031078;28;21057;-52
2022/08/10 10:02:37;;;;;;;1.13;1.13;;;25.50;99.90;;;;;;5027348;28;20482;-53
2022/08/10 10:05:16;;;;;;;1.40;1.13;;;25.60;99.90;;;;;;5027301;28;20561;-52
2022/08/10 10:08:03;;;;;;;3.00;0.90;;;25.70;99.90;;;;;;5028650;28;20501;-52
2022/08/10 10:10:40;;;;;;;3.73;1.30;;;25.60;99.90;;;;;;5030966;28;20462;-53
2022/08/10 10:13:11;;;;;;;1.60;1.47;;;25.60;99.90;;;;;;5027430;28;20509;-53
2022/08/10 10:15:48;;;;;;;1.30;1.20;;;25.70;99.90;;;;;;5028487;28;20498;-53
2022/08/10 10:18:23;;;;;;;2.63;1.63;;;25.70;99.90;;;;;;5028128;28;20485;-52
2022/08/10 10:21:00;;;;;;;3.83;0.87;;;25.70;99.90;;;;;;5026109;28;20506;-53
2022/08/10 10:23:49;;;;;;;1.40;1.00;;;25.80;99.90;;;;;;5026075;28;20474;-53
2022/08/10 10:26:23;;;;;;;2.90;1.57;;;25.90;99.90;;;;;;5023985;28;20459;-52
2022/08/10 10:29:02;;;;;;;3.27;1.43;;;25.90;99.90;;;;;;5029887;28;20481;-52
2022/08/10 10:31:35;;;;;;;1.30;1.20;;;26.30;99.90;;;;;;5030134;28;20477;-52
2022/08/10 10:34:09;;;;;;;7.73;2.07;;;26.10;99.90;;;;;;5030183;28;20473;-52
2022/08/10 10:36:37;;;;;;;1.53;1.43;;;26.10;99.90;;;;;;5022118;28;20455;-52
2022/08/10 10:39:04;;;;;;;2.83;1.43;;;25.80;99.90;;;;;;5027896;28;20855;-52
2022/08/10 10:41:38;;;;;;;2.00;1.13;;;25.90;99.90;;;;;;5026652;28;21250;-52
2022/08/10 10:44:20;;;;;;;1.50;1.40;;;25.90;99.90;;;;;;5028046;28;20487;-51
2022/08/10 10:46:56;;;;;;;2.53;1.40;;;26.00;99.90;;;;;;5029079;28;20542;-54
2022/08/10 10:49:38;;;;;;;2.60;2.33;;;26.10;99.90;;;;;;5023779;28;20462;-52
2022/08/10 10:52:18;;;;;;;4.77;1.87;;;26.20;99.90;;;;;;5025419;28;20490;-52
2022/08/10 10:54:56;;;;;;;2.53;1.43;;;26.00;99.90;;;;;;5035586;28;20486;-51
2022/08/10 10:57:32;;;;;;;4.03;1.70;;;25.90;99.90;;;;;;5031634;28;20480;-52
2022/08/10 11:00:04;;;;;;;9.97;1.50;;;25.90;99.90;;;;;;5027539;28;20486;-52
2022/08/10 11:02:43;;;;;;;2.70;1.60;;;25.90;99.90;;;;;;5030786;28;20482;-51
2022/08/10 11:05:26;;;;;;;1.70;1.60;;;26.10;99.90;;;;;;5027703;28;20470;-52
2022/08/10 11:07:59;;;;;;;1.70;1.20;;;26.20;99.90;;;;;;5035707;28;20904;-52
2022/08/10 11:10:31;;;;;;;2.30;1.30;;;26.30;99.90;;;;;;5031493;28;20466;-52
2022/08/10 11:13:12;;;;;;;3.27;1.37;;;26.10;99.90;;;;;;5040887;28;20505;-53
2022/08/10 11:15:43;;;;;;;1.73;1.13;;;26.10;99.90;;;;;;5033085;28;20496;-52
2022/08/10 11:18:18;;;;;;;1.40;1.30;;;26.30;99.90;;;;;;5033105;28;20486;-52
2022/08/10 11:20:51;;;;;;;2.20;1.93;;;26.40;99.90;;;;;;5033807;28;20454;-53
2022/08/10 11:23:25;;;;;;;2.03;1.63;;;26.50;99.90;;;;;;5037348;28;20458;-53
2022/08/10 11:25:59;;;;;;;7.43;1.80;;;26.60;99.90;;;;;;5036057;28;20514;-53
2022/08/10 11:28:33;;;;;;;5.43;1.37;;;26.60;99.90;;;;;;5041782;28;20497;-53
2022/08/10 11:31:06;;;;;;;1.40;1.40;;;26.70;99.90;;;;;;5031911;28;20541;-52
2022/08/10 11:33:40;;;;;;;1.20;1.20;;;26.70;99.90;;;;;;5034104;28;20528;-52
2022/08/10 11:36:15;;;;;;;1.60;1.50;;;26.80;99.90;;;;;;5036351;28;20510;-53
2022/08/10 11:38:49;;;;;;;4.63;1.37;;;26.80;99.90;;;;;;5036741;28;20525;-53
2022/08/10 11:41:27;;;;;;;2.30;1.53;;;26.70;99.90;;;;;;5032261;28;21025;-53
2022/08/10 11:44:03;;;;;;;3.43;1.60;;;26.80;99.90;;;;;;5041895;28;20449;-52
2022/08/10 11:46:33;;;;;;;1.77;1.67;;;26.70;99.90;;;;;;5024532;28;20516;-53
2022/08/10 11:49:08;;;;;;;1.73;1.63;;;26.70;99.90;;;;;;5033404;28;20486;-53
2022/08/10 11:51:42;;;;;;;1.40;1.30;;;26.80;99.90;;;;;;5032628;28;20506;-52
2022/08/10 11:54:19;;;;;;;1.50;1.40;;;26.90;99.90;;;;;;5039816;28;20481;-53
2022/08/10 11:56:49;;;;;;;1.87;1.47;;;27.00;99.90;;;;;;5033001;28;20458;-53
2022/08/10 12:02:04;;;;;;;1.57;1.47;;;27.10;99.90;;;;;;5031846;28;20454;-53
2022/08/10 12:04:34;;;;;;;4.77;1.37;;;27.20;99.90;;;;;;5031651;28;20536;-53
2022/08/10 12:07:04;;;;;;;3.67;1.97;;;27.30;99.90;;;;;;5032144;28;20454;-51
2022/08/10 12:09:31;;;;;;;1.77;1.67;;;27.30;99.90;;;;;;5031358;28;20516;-53
2022/08/10 12:11:59;;;;;;;3.43;1.90;;;27.30;99.90;;;;;;5033660;28;20540;-53
2022/08/10 12:14:32;;;;;;;3.90;1.73;;;27.40;99.90;;;;;;5034021;28;20491;-52
2022/08/10 12:17:03;;;;;;;2.70;1.60;;;27.50;99.90;;;;;;5032736;28;20509;-52
2022/08/10 12:19:43;;;;;;;1.97;1.57;;;27.50;99.90;;;;;;5033999;28;20459;-52
2022/08/10 12:22:13;;;;;;;2.23;1.93;;;27.60;99.90;;;;;;5031156;28;20556;-52
2022/08/10 12:24:45;;;;;;;1.67;1.57;;;27.70;99.90;;;;;;5034976;28;20537;-53
2022/08/10 12:27:19;;;;;;;1.73;1.63;;;27.50;99.90;;;;;;5034716;28;20483;-53
2022/08/10 12:29:53;;;;;;;1.80;1.70;;;27.40;99.90;;;;;;5030064;28;20497;-53
2022/08/10 12:32:30;;;;;;;1.67;1.57;;;27.30;99.90;;;;;;5030483;28;20510;-52
2022/08/10 12:35:03;;;;;;;2.17;1.23;;;27.30;99.90;;;;;;5032448;28;20493;-53
2022/08/10 12:37:38;;;;;;;2.00;1.80;;;27.40;99.90;;;;;;5031240;28;20494;-53
2022/08/10 12:40:10;;;;;;;2.50;1.17;;;27.40;99.90;;;;;;5033621;28;20516;-53
2022/08/10 12:42:42;;;;;;;1.37;1.30;;;27.50;99.90;;;;;;5033705;28;21021;-53
2022/08/10 12:45:15;;;;;;;5.70;1.70;;;27.70;99.90;;;;;;5031278;28;20490;-52
2022/08/10 12:47:51;;;;;;;2.17;1.50;;;27.80;99.90;;;;;;5034449;28;20498;-52
2022/08/10 12:50:21;;;;;;;1.90;1.67;;;27.90;99.90;;;;;;5021638;28;20559;-51
2022/08/10 12:52:56;;;;;;;5.50;1.40;;;27.90;99.90;;;;;;5030513;28;20522;-53
2022/08/10 12:55:25;;;;;;;1.37;1.20;;;27.90;99.90;;;;;;5032896;28;20497;-52
2022/08/10 12:57:55;;;;;;;3.10;1.30;;;28.00;99.90;;;;;;5032851;28;20443;-53
2022/08/10 13:00:31;;;;;;;1.77;1.30;;;28.00;99.90;;;;;;5036765;28;20988;-52
2022/08/10 13:03:00;;;;;;;2.97;1.73;;;27.90;99.90;;;;;;5029215;28;20470;-53
2022/08/10 13:05:29;;;;;;;3.60;1.20;;;27.90;99.90;;;;;;5031034;28;20483;-52
2022/08/10 13:10:49;;;;;;;6.33;1.23;;;28.10;99.90;;;;;;5032398;28;20442;-53
2022/08/10 13:13:18;;;;;;;1.87;1.77;;;28.00;99.90;;;;;;5032705;28;20505;-52
2022/08/10 13:15:46;;;;;;;1.50;1.40;;;28.20;99.90;;;;;;5033710;28;20477;-52
2022/08/10 13:18:16;;;;;;;14.30;1.60;;;28.30;99.90;;;;;;5030789;28;20494;-52